Dalton City, Illinois
Current Conditions -  °F | °C
As of 6:54 PM on Tuesday 27 Jan 2015 (Local Time) from KDEC Reporting Station
Overcast Overcast  
Wind Chill: 25°   Ceiling: 2000
Heat Index: 31°   Visibility: 9mi
Dew Point: 26°   Wind: 6mph
Humidity: 82%   Direction: 60°ENE
Pressure: 30.25"   Gusts: NA
Location:  39.71°N, 88.8°W
Report Text: KDEC 280054Z 06005KT 9SM OVC020 M01/M03 A3025 RMK AO2 SLP250 T10061033
Loading
Personal Weather Stations






























Interactive Weather Map New forecast layout! Learn more

10-Day Weather Forecast

Advertisements
Track Severe Weather on mobile